Airport View

Enter AWOS ICAO identifier for current METAR.

ex. KFNL

KRDK 041535Z AUTO 10008KT 10SM CLR 28/21 A3006 RMK AO2

4 Jul 2020 15:43

Frequency: 119.775

Phone: 712-623-3220

Other Area AWOS: KSDA - KICL - KAIO - KCBF

TAF KOFF 041000Z 0410/0516 VRB06KT 9999 FEW040 QNH2994INS TX31/0421Z TN20/0410Z